sensor_id;sensor_type;location;lat;lon;timestamp;temperature;humidity
59146;DHT22;44928;53.074;6.646;2023-01-01T00:02:05;14.10;99.90
59146;DHT22;44928;53.074;6.646;2023-01-01T00:04:31;14.00;99.90
59146;DHT22;44928;53.074;6.646;2023-01-01T00:06:59;13.80;99.90
59146;DHT22;44928;53.074;6.646;2023-01-01T00:09:24;13.80;99.90
59146;DHT22;44928;53.074;6.646;2023-01-01T00:12:08;13.70;99.90
59146;DHT22;44928;53.074;6.646;2023-01-01T00:14:34;13.60;99.90
59146;DHT22;44928;53.074;6.646;2023-01-01T00:17:00;13.60;99.90
59146;DHT22;44928;53.074;6.646;2023-01-01T00:19:26;13.50;99.90
59146;DHT22;44928;53.074;6.646;2023-01-01T00:21:52;13.40;99.90
59146;DHT22;44928;53.074;6.646;2023-01-01T00:24:18;13.40;99.90
59146;DHT22;44928;53.074;6.646;2023-01-01T00:26:44;13.30;99.90
59146;DHT22;44928;53.074;6.646;2023-01-01T00:29:09;13.20;99.90
59146;DHT22;44928;53.074;6.646;2023-01-01T00:31:35;13.20;99.90
59146;DHT22;44928;53.074;6.646;2023-01-01T00:34:01;13.20;99.90
59146;DHT22;44928;53.074;6.646;2023-01-01T00:36:26;13.20;99.90
59146;DHT22;44928;53.074;6.646;2023-01-01T00:38:53;13.20;99.90
59146;DHT22;44928;53.074;6.646;2023-01-01T00:41:19;13.20;99.90
59146;DHT22;44928;53.074;6.646;2023-01-01T00:43:44;13.30;99.90
59146;DHT22;44928;53.074;6.646;2023-01-01T00:46:10;13.30;99.90
59146;DHT22;44928;53.074;6.646;2023-01-01T00:48:36;13.30;99.90
59146;DHT22;44928;53.074;6.646;2023-01-01T00:51:02;13.30;99.90
59146;DHT22;44928;53.074;6.646;2023-01-01T00:53:28;13.30;99.90
59146;DHT22;44928;53.074;6.646;2023-01-01T00:55:53;13.40;99.90
59146;DHT22;44928;53.074;6.646;2023-01-01T00:58:20;13.40;99.90
59146;DHT22;44928;53.074;6.646;2023-01-01T01:00:47;13.40;99.90
59146;DHT22;44928;53.074;6.646;2023-01-01T01:03:13;13.50;99.90
59146;DHT22;44928;53.074;6.646;2023-01-01T01:05:53;13.60;99.90
59146;DHT22;44928;53.074;6.646;2023-01-01T01:08:19;13.70;99.90
59146;DHT22;44928;53.074;6.646;2023-01-01T01:10:44;13.70;99.90
59146;DHT22;44928;53.074;6.646;2023-01-01T01:13:10;13.70;99.90
59146;DHT22;44928;53.074;6.646;2023-01-01T01:15:36;13.70;99.90
59146;DHT22;44928;53.074;6.646;2023-01-01T01:18:02;13.70;99.90
59146;DHT22;44928;53.074;6.646;2023-01-01T01:20:28;13.70;99.90
59146;DHT22;44928;53.074;6.646;2023-01-01T01:22:53;13.70;99.90
59146;DHT22;44928;53.074;6.646;2023-01-01T01:25:19;13.80;99.90
59146;DHT22;44928;53.074;6.646;2023-01-01T01:27:44;13.80;99.90
59146;DHT22;44928;53.074;6.646;2023-01-01T01:30:10;13.80;99.90
59146;DHT22;44928;53.074;6.646;2023-01-01T01:32:36;13.70;99.90
59146;DHT22;44928;53.074;6.646;2023-01-01T01:35:02;13.70;99.90
59146;DHT22;44928;53.074;6.646;2023-01-01T01:37:27;13.60;99.90
59146;DHT22;44928;53.074;6.646;2023-01-01T01:39:53;13.60;99.90
59146;DHT22;44928;53.074;6.646;2023-01-01T01:42:20;13.50;99.90
59146;DHT22;44928;53.074;6.646;2023-01-01T01:47:48;13.30;99.90
59146;DHT22;44928;53.074;6.646;2023-01-01T01:50:10;13.30;99.90
59146;DHT22;44928;53.074;6.646;2023-01-01T01:52:38;13.20;99.90
59146;DHT22;44928;53.074;6.646;2023-01-01T01:55:04;13.10;99.90
59146;DHT22;44928;53.074;6.646;2023-01-01T01:57:31;13.10;99.90
59146;DHT22;44928;53.074;6.646;2023-01-01T01:59:57;13.20;99.90
59146;DHT22;44928;53.074;6.646;2023-01-01T02:05:07;13.10;99.90
59146;DHT22;44928;53.074;6.646;2023-01-01T02:07:33;13.10;99.90
59146;DHT22;44928;53.074;6.646;2023-01-01T02:09:59;13.10;99.90
59146;DHT22;44928;53.074;6.646;2023-01-01T02:12:25;13.10;99.90
59146;DHT22;44928;53.074;6.646;2023-01-01T02:14:51;13.10;99.90
59146;DHT22;44928;53.074;6.646;2023-01-01T02:18:02;13.10;99.90
59146;DHT22;44928;53.074;6.646;2023-01-01T02:22:41;13.10;99.90
59146;DHT22;44928;53.074;6.646;2023-01-01T02:27:53;13.20;99.90
59146;DHT22;44928;53.074;6.646;2023-01-01T02:30:24;13.20;99.90
59146;DHT22;44928;53.074;6.646;2023-01-01T02:32:56;13.30;99.90
59146;DHT22;44928;53.074;6.646;2023-01-01T02:35:30;13.30;99.90
59146;DHT22;44928;53.074;6.646;2023-01-01T02:38:44;13.30;99.90
59146;DHT22;44928;53.074;6.646;2023-01-01T02:40:48;13.40;99.90
59146;DHT22;44928;53.074;6.646;2023-01-01T02:43:14;13.40;99.90
59146;DHT22;44928;53.074;6.646;2023-01-01T02:45:40;13.50;99.90
59146;DHT22;44928;53.074;6.646;2023-01-01T02:48:07;13.50;99.90
59146;DHT22;44928;53.074;6.646;2023-01-01T02:50:51;13.50;99.90
59146;DHT22;44928;53.074;6.646;2023-01-01T02:53:26;13.60;99.90
59146;DHT22;44928;53.074;6.646;2023-01-01T02:56:17;13.50;99.90
59146;DHT22;44928;53.074;6.646;2023-01-01T02:58:44;13.50;99.90
59146;DHT22;44928;53.074;6.646;2023-01-01T03:01:34;13.50;99.90
59146;DHT22;44928;53.074;6.646;2023-01-01T03:04:07;13.60;99.90
59146;DHT22;44928;53.074;6.646;2023-01-01T03:06:39;13.70;99.90
59146;DHT22;44928;53.074;6.646;2023-01-01T03:12:19;13.80;99.90
59146;DHT22;44928;53.074;6.646;2023-01-01T03:14:20;13.80;99.90
59146;DHT22;44928;53.074;6.646;2023-01-01T03:16:53;13.80;99.90
59146;DHT22;44928;53.074;6.646;2023-01-01T03:19:25;13.70;99.90
59146;DHT22;44928;53.074;6.646;2023-01-01T03:22:00;13.70;99.90
59146;DHT22;44928;53.074;6.646;2023-01-01T03:24:29;13.80;99.90
59146;DHT22;44928;53.074;6.646;2023-01-01T03:26:56;13.80;99.90
59146;DHT22;44928;53.074;6.646;2023-01-01T03:29:23;13.90;99.90
59146;DHT22;44928;53.074;6.646;2023-01-01T03:31:50;13.80;99.90
59146;DHT22;44928;53.074;6.646;2023-01-01T03:34:19;13.90;99.90
59146;DHT22;44928;53.074;6.646;2023-01-01T03:36:47;13.90;99.90
59146;DHT22;44928;53.074;6.646;2023-01-01T03:44:29;13.90;99.90
59146;DHT22;44928;53.074;6.646;2023-01-01T03:46:58;13.80;99.90
59146;DHT22;44928;53.074;6.646;2023-01-01T03:49:24;13.80;99.90
59146;DHT22;44928;53.074;6.646;2023-01-01T03:59:42;13.30;99.90
59146;DHT22;44928;53.074;6.646;2023-01-01T04:02:10;13.10;99.90
59146;DHT22;44928;53.074;6.646;2023-01-01T04:04:37;13.00;99.90
59146;DHT22;44928;53.074;6.646;2023-01-01T04:07:03;12.90;99.90
59146;DHT22;44928;53.074;6.646;2023-01-01T04:09:29;12.80;99.90
59146;DHT22;44928;53.074;6.646;2023-01-01T04:11:56;12.80;99.90
59146;DHT22;44928;53.074;6.646;2023-01-01T04:14:33;12.70;99.90
59146;DHT22;44928;53.074;6.646;2023-01-01T04:16:59;12.60;99.90
59146;DHT22;44928;53.074;6.646;2023-01-01T04:19:25;12.60;99.90
59146;DHT22;44928;53.074;6.646;2023-01-01T04:21:51;12.50;99.90
59146;DHT22;44928;53.074;6.646;2023-01-01T04:24:17;12.40;99.90
59146;DHT22;44928;53.074;6.646;2023-01-01T04:26:43;12.40;99.90
59146;DHT22;44928;53.074;6.646;2023-01-01T04:29:08;12.30;99.90
59146;DHT22;44928;53.074;6.646;2023-01-01T04:31:34;12.30;99.90
59146;DHT22;44928;53.074;6.646;2023-01-01T04:34:00;12.20;99.90
59146;DHT22;44928;53.074;6.646;2023-01-01T04:36:26;12.20;99.90
59146;DHT22;44928;53.074;6.646;2023-01-01T04:38:52;12.20;99.90
59146;DHT22;44928;53.074;6.646;2023-01-01T04:41:17;12.20;99.90
59146;DHT22;44928;53.074;6.646;2023-01-01T04:43:45;12.20;99.90
59146;DHT22;44928;53.074;6.646;2023-01-01T04:46:11;12.20;99.90
59146;DHT22;44928;53.074;6.646;2023-01-01T04:48:36;12.10;99.90
59146;DHT22;44928;53.074;6.646;2023-01-01T04:51:03;12.10;99.90
59146;DHT22;44928;53.074;6.646;2023-01-01T04:53:30;12.10;99.90
59146;DHT22;44928;53.074;6.646;2023-01-01T04:55:57;12.10;99.90
59146;DHT22;44928;53.074;6.646;2023-01-01T04:58:27;12.10;99.90
59146;DHT22;44928;53.074;6.646;2023-01-01T05:00:52;12.20;99.90
59146;DHT22;44928;53.074;6.646;2023-01-01T05:03:18;12.30;99.90
59146;DHT22;44928;53.074;6.646;2023-01-01T05:05:44;12.40;99.90
59146;DHT22;44928;53.074;6.646;2023-01-01T05:08:09;12.50;99.90
59146;DHT22;44928;53.074;6.646;2023-01-01T05:10:35;12.60;99.90
59146;DHT22;44928;53.074;6.646;2023-01-01T05:13:00;12.60;99.90
59146;DHT22;44928;53.074;6.646;2023-01-01T05:15:30;12.70;99.90
59146;DHT22;44928;53.074;6.646;2023-01-01T05:17:55;12.70;99.90
59146;DHT22;44928;53.074;6.646;2023-01-01T05:20:21;12.70;99.90
59146;DHT22;44928;53.074;6.646;2023-01-01T05:22:47;12.80;99.90
59146;DHT22;44928;53.074;6.646;2023-01-01T05:25:12;12.80;99.90
59146;DHT22;44928;53.074;6.646;2023-01-01T05:27:38;12.80;99.90
59146;DHT22;44928;53.074;6.646;2023-01-01T05:30:04;12.80;99.90
59146;DHT22;44928;53.074;6.646;2023-01-01T05:32:29;12.80;99.90
59146;DHT22;44928;53.074;6.646;2023-01-01T05:34:55;12.80;99.90
59146;DHT22;44928;53.074;6.646;2023-01-01T05:37:21;12.80;99.90
59146;DHT22;44928;53.074;6.646;2023-01-01T05:39:46;12.80;99.90
59146;DHT22;44928;53.074;6.646;2023-01-01T05:42:13;12.80;99.90
59146;DHT22;44928;53.074;6.646;2023-01-01T05:44:39;12.80;99.90
59146;DHT22;44928;53.074;6.646;2023-01-01T05:47:05;12.80;99.90
59146;DHT22;44928;53.074;6.646;2023-01-01T05:49:31;12.90;99.90
59146;DHT22;44928;53.074;6.646;2023-01-01T05:51:56;12.90;99.90
59146;DHT22;44928;53.074;6.646;2023-01-01T05:54:22;12.90;99.90
59146;DHT22;44928;53.074;6.646;2023-01-01T05:56:48;12.90;99.90
59146;DHT22;44928;53.074;6.646;2023-01-01T05:59:13;12.90;99.90
59146;DHT22;44928;53.074;6.646;2023-01-01T06:01:39;12.90;99.90
59146;DHT22;44928;53.074;6.646;2023-01-01T06:04:04;13.00;99.90
59146;DHT22;44928;53.074;6.646;2023-01-01T06:06:31;12.90;99.90
59146;DHT22;44928;53.074;6.646;2023-01-01T06:09:00;12.90;99.90
59146;DHT22;44928;53.074;6.646;2023-01-01T06:11:26;13.00;99.90
59146;DHT22;44928;53.074;6.646;2023-01-01T06:13:56;13.00;99.90
59146;DHT22;44928;53.074;6.646;2023-01-01T06:16:22;12.90;99.90
59146;DHT22;44928;53.074;6.646;2023-01-01T06:18:48;13.00;99.90
59146;DHT22;44928;53.074;6.646;2023-01-01T06:21:15;13.00;99.90
59146;DHT22;44928;53.074;6.646;2023-01-01T06:23:41;12.90;99.90
59146;DHT22;44928;53.074;6.646;2023-01-01T06:26:13;12.90;99.90
59146;DHT22;44928;53.074;6.646;2023-01-01T06:28:39;12.90;99.90
59146;DHT22;44928;53.074;6.646;2023-01-01T06:31:06;12.90;99.90
59146;DHT22;44928;53.074;6.646;2023-01-01T06:33:32;12.90;99.90
59146;DHT22;44928;53.074;6.646;2023-01-01T06:35:58;12.80;99.90
59146;DHT22;44928;53.074;6.646;2023-01-01T06:38:26;12.80;99.90
59146;DHT22;44928;53.074;6.646;2023-01-01T06:40:58;12.70;99.90
59146;DHT22;44928;53.074;6.646;2023-01-01T06:43:24;12.80;99.90
59146;DHT22;44928;53.074;6.646;2023-01-01T06:46:02;12.70;99.90
59146;DHT22;44928;53.074;6.646;2023-01-01T06:48:29;12.70;99.90
59146;DHT22;44928;53.074;6.646;2023-01-01T06:50:54;12.70;99.90
59146;DHT22;44928;53.074;6.646;2023-01-01T06:53:26;12.60;99.90
59146;DHT22;44928;53.074;6.646;2023-01-01T06:55:52;12.60;99.90
59146;DHT22;44928;53.074;6.646;2023-01-01T06:58:18;12.70;99.90
59146;DHT22;44928;53.074;6.646;2023-01-01T07:00:43;12.70;99.90
59146;DHT22;44928;53.074;6.646;2023-01-01T07:03:09;12.60;99.90
59146;DHT22;44928;53.074;6.646;2023-01-01T07:05:35;12.60;99.90
59146;DHT22;44928;53.074;6.646;2023-01-01T07:08:01;12.60;99.90
59146;DHT22;44928;53.074;6.646;2023-01-01T07:10:26;12.50;99.90
59146;DHT22;44928;53.074;6.646;2023-01-01T07:12:52;12.50;99.90
59146;DHT22;44928;53.074;6.646;2023-01-01T07:15:18;12.40;99.90
59146;DHT22;44928;53.074;6.646;2023-01-01T07:17:43;12.40;99.90
59146;DHT22;44928;53.074;6.646;2023-01-01T07:20:10;12.40;99.90
59146;DHT22;44928;53.074;6.646;2023-01-01T07:22:36;12.30;99.90
59146;DHT22;44928;53.074;6.646;2023-01-01T07:25:02;12.40;99.90
59146;DHT22;44928;53.074;6.646;2023-01-01T07:27:28;12.40;99.90
59146;DHT22;44928;53.074;6.646;2023-01-01T07:29:54;12.30;99.90
59146;DHT22;44928;53.074;6.646;2023-01-01T07:32:19;12.30;99.90
59146;DHT22;44928;53.074;6.646;2023-01-01T07:34:45;12.30;99.90
59146;DHT22;44928;53.074;6.646;2023-01-01T07:37:11;12.30;99.90
59146;DHT22;44928;53.074;6.646;2023-01-01T07:39:36;12.30;99.90
59146;DHT22;44928;53.074;6.646;2023-01-01T07:42:02;12.30;99.90
59146;DHT22;44928;53.074;6.646;2023-01-01T07:44:27;12.20;99.90
59146;DHT22;44928;53.074;6.646;2023-01-01T07:47:10;12.30;99.90
59146;DHT22;44928;53.074;6.646;2023-01-01T07:49:38;12.20;99.90
59146;DHT22;44928;53.074;6.646;2023-01-01T07:52:04;12.20;99.90
59146;DHT22;44928;53.074;6.646;2023-01-01T07:54:29;12.20;99.90
59146;DHT22;44928;53.074;6.646;2023-01-01T07:56:55;12.20;99.90
59146;DHT22;44928;53.074;6.646;2023-01-01T07:59:20;12.20;99.90
59146;DHT22;44928;53.074;6.646;2023-01-01T08:01:46;12.20;99.90
59146;DHT22;44928;53.074;6.646;2023-01-01T08:04:12;12.20;99.90
59146;DHT22;44928;53.074;6.646;2023-01-01T08:06:37;12.20;99.90
59146;DHT22;44928;53.074;6.646;2023-01-01T08:09:03;12.20;99.90
59146;DHT22;44928;53.074;6.646;2023-01-01T08:11:28;12.10;99.90
59146;DHT22;44928;53.074;6.646;2023-01-01T08:13:54;12.20;99.90
59146;DHT22;44928;53.074;6.646;2023-01-01T08:16:20;12.10;99.90
59146;DHT22;44928;53.074;6.646;2023-01-01T08:18:45;12.10;99.90
59146;DHT22;44928;53.074;6.646;2023-01-01T08:21:11;12.10;99.90
59146;DHT22;44928;53.074;6.646;2023-01-01T08:23:37;12.10;99.90
59146;DHT22;44928;53.074;6.646;2023-01-01T08:26:02;12.10;99.90
59146;DHT22;44928;53.074;6.646;2023-01-01T08:28:28;12.00;99.90
59146;DHT22;44928;53.074;6.646;2023-01-01T08:30:54;12.00;99.90
59146;DHT22;44928;53.074;6.646;2023-01-01T08:33:20;11.90;99.90
59146;DHT22;44928;53.074;6.646;2023-01-01T08:35:47;12.00;99.90
59146;DHT22;44928;53.074;6.646;2023-01-01T08:38:13;12.00;99.90
59146;DHT22;44928;53.074;6.646;2023-01-01T08:40:38;12.00;99.90
59146;DHT22;44928;53.074;6.646;2023-01-01T08:43:04;12.00;99.90
59146;DHT22;44928;53.074;6.646;2023-01-01T08:45:30;12.00;99.90
59146;DHT22;44928;53.074;6.646;2023-01-01T08:47:55;12.00;99.90
59146;DHT22;44928;53.074;6.646;2023-01-01T08:50:21;12.00;99.90
59146;DHT22;44928;53.074;6.646;2023-01-01T08:52:47;12.00;99.90
59146;DHT22;44928;53.074;6.646;2023-01-01T08:55:12;12.00;99.90
59146;DHT22;44928;53.074;6.646;2023-01-01T08:57:38;11.90;99.90
59146;DHT22;44928;53.074;6.646;2023-01-01T09:00:04;11.90;99.90
59146;DHT22;44928;53.074;6.646;2023-01-01T09:02:30;11.90;99.90
59146;DHT22;44928;53.074;6.646;2023-01-01T09:04:56;11.90;99.90
59146;DHT22;44928;53.074;6.646;2023-01-01T09:07:21;11.90;99.90
59146;DHT22;44928;53.074;6.646;2023-01-01T09:09:47;11.80;99.90
59146;DHT22;44928;53.074;6.646;2023-01-01T09:12:14;11.80;99.90
59146;DHT22;44928;53.074;6.646;2023-01-01T09:14:39;11.80;99.90
59146;DHT22;44928;53.074;6.646;2023-01-01T09:17:05;11.80;99.90
59146;DHT22;44928;53.074;6.646;2023-01-01T09:19:31;11.90;99.90
59146;DHT22;44928;53.074;6.646;2023-01-01T09:21:57;11.80;99.90
59146;DHT22;44928;53.074;6.646;2023-01-01T09:24:22;11.80;99.90
59146;DHT22;44928;53.074;6.646;2023-01-01T09:26:48;11.80;99.90
59146;DHT22;44928;53.074;6.646;2023-01-01T09:29:14;11.80;99.90
59146;DHT22;44928;53.074;6.646;2023-01-01T09:31:45;11.90;99.90
59146;DHT22;44928;53.074;6.646;2023-01-01T09:34:10;11.80;99.90
59146;DHT22;44928;53.074;6.646;2023-01-01T09:36:36;11.80;99.90
59146;DHT22;44928;53.074;6.646;2023-01-01T09:39:02;11.80;99.90
59146;DHT22;44928;53.074;6.646;2023-01-01T09:46:31;11.90;99.90
59146;DHT22;44928;53.074;6.646;2023-01-01T09:48:58;11.80;99.90
59146;DHT22;44928;53.074;6.646;2023-01-01T09:51:25;11.80;99.90
59146;DHT22;44928;53.074;6.646;2023-01-01T09:54:06;11.90;99.90
59146;DHT22;44928;53.074;6.646;2023-01-01T09:56:35;11.80;99.90
59146;DHT22;44928;53.074;6.646;2023-01-01T09:59:02;11.90;99.90
59146;DHT22;44928;53.074;6.646;2023-01-01T10:01:40;11.90;99.90
59146;DHT22;44928;53.074;6.646;2023-01-01T10:09:42;11.90;99.90
59146;DHT22;44928;53.074;6.646;2023-01-01T10:12:13;11.90;99.90
59146;DHT22;44928;53.074;6.646;2023-01-01T10:14:41;11.90;99.90
59146;DHT22;44928;53.074;6.646;2023-01-01T10:19:38;11.90;99.90
59146;DHT22;44928;53.074;6.646;2023-01-01T10:22:06;11.90;99.90
59146;DHT22;44928;53.074;6.646;2023-01-01T10:24:43;11.90;99.90
59146;DHT22;44928;53.074;6.646;2023-01-01T10:27:22;11.90;99.90
59146;DHT22;44928;53.074;6.646;2023-01-01T10:29:49;11.90;99.90
59146;DHT22;44928;53.074;6.646;2023-01-01T10:34:44;11.90;99.90
59146;DHT22;44928;53.074;6.646;2023-01-01T10:37:10;11.90;99.90
59146;DHT22;44928;53.074;6.646;2023-01-01T10:39:37;11.90;99.90
59146;DHT22;44928;53.074;6.646;2023-01-01T10:42:03;11.80;99.90
59146;DHT22;44928;53.074;6.646;2023-01-01T10:44:29;11.80;99.90
59146;DHT22;44928;53.074;6.646;2023-01-01T10:46:58;11.80;99.90
59146;DHT22;44928;53.074;6.646;2023-01-01T10:49:24;11.80;99.90
59146;DHT22;44928;53.074;6.646;2023-01-01T10:51:50;11.80;99.90
59146;DHT22;44928;53.074;6.646;2023-01-01T10:54:24;11.80;99.90
59146;DHT22;44928;53.074;6.646;2023-01-01T10:56:53;11.80;99.90
59146;DHT22;44928;53.074;6.646;2023-01-01T10:59:32;11.80;99.90
59146;DHT22;44928;53.074;6.646;2023-01-01T11:04:44;11.80;99.90
59146;DHT22;44928;53.074;6.646;2023-01-01T11:07:17;11.80;99.90
59146;DHT22;44928;53.074;6.646;2023-01-01T11:09:46;11.80;99.90
59146;DHT22;44928;53.074;6.646;2023-01-01T11:12:16;11.80;99.90
59146;DHT22;44928;53.074;6.646;2023-01-01T11:14:47;11.80;99.90
59146;DHT22;44928;53.074;6.646;2023-01-01T11:17:19;11.80;99.90
59146;DHT22;44928;53.074;6.646;2023-01-01T11:19:46;11.80;99.90
59146;DHT22;44928;53.074;6.646;2023-01-01T11:25:01;11.80;99.90
59146;DHT22;44928;53.074;6.646;2023-01-01T11:27:26;11.90;99.90
59146;DHT22;44928;53.074;6.646;2023-01-01T11:30:03;11.90;99.90
59146;DHT22;44928;53.074;6.646;2023-01-01T11:32:37;11.90;99.90
59146;DHT22;44928;53.074;6.646;2023-01-01T11:35:04;11.90;99.90
59146;DHT22;44928;53.074;6.646;2023-01-01T11:37:36;11.90;99.90
59146;DHT22;44928;53.074;6.646;2023-01-01T11:40:02;12.00;99.90
59146;DHT22;44928;53.074;6.646;2023-01-01T11:42:30;11.90;99.90
59146;DHT22;44928;53.074;6.646;2023-01-01T11:44:58;12.00;99.90
59146;DHT22;44928;53.074;6.646;2023-01-01T11:47:26;11.90;99.90
59146;DHT22;44928;53.074;6.646;2023-01-01T11:52:38;12.00;99.90
59146;DHT22;44928;53.074;6.646;2023-01-01T11:55:12;12.00;99.90
59146;DHT22;44928;53.074;6.646;2023-01-01T11:57:40;12.00;99.90
59146;DHT22;44928;53.074;6.646;2023-01-01T12:00:11;12.00;99.90
59146;DHT22;44928;53.074;6.646;2023-01-01T12:02:39;12.10;99.90
59146;DHT22;44928;53.074;6.646;2023-01-01T12:07:33;12.20;99.90
59146;DHT22;44928;53.074;6.646;2023-01-01T12:12:29;12.30;99.90
59146;DHT22;44928;53.074;6.646;2023-01-01T12:15:00;12.30;99.90
59146;DHT22;44928;53.074;6.646;2023-01-01T12:17:32;12.40;99.90
59146;DHT22;44928;53.074;6.646;2023-01-01T12:22:27;12.40;99.90
59146;DHT22;44928;53.074;6.646;2023-01-01T12:24:53;12.40;99.90
59146;DHT22;44928;53.074;6.646;2023-01-01T12:27:24;12.40;99.90
59146;DHT22;44928;53.074;6.646;2023-01-01T12:35:12;12.30;99.90
59146;DHT22;44928;53.074;6.646;2023-01-01T12:47:57;12.30;99.90
59146;DHT22;44928;53.074;6.646;2023-01-01T12:50:50;12.30;99.90
59146;DHT22;44928;53.074;6.646;2023-01-01T12:58:07;12.30;99.90
59146;DHT22;44928;53.074;6.646;2023-01-01T13:00:38;12.30;99.90
59146;DHT22;44928;53.074;6.646;2023-01-01T13:03:08;12.30;99.90
59146;DHT22;44928;53.074;6.646;2023-01-01T13:05:37;12.30;99.90
59146;DHT22;44928;53.074;6.646;2023-01-01T13:08:04;12.30;99.90
59146;DHT22;44928;53.074;6.646;2023-01-01T13:10:34;12.30;99.90
59146;DHT22;44928;53.074;6.646;2023-01-01T13:13:02;12.30;99.90
59146;DHT22;44928;53.074;6.646;2023-01-01T13:17:59;12.30;99.90
59146;DHT22;44928;53.074;6.646;2023-01-01T13:20:26;12.30;99.90
59146;DHT22;44928;53.074;6.646;2023-01-01T13:22:51;12.40;99.90
59146;DHT22;44928;53.074;6.646;2023-01-01T13:25:18;12.40;99.90
59146;DHT22;44928;53.074;6.646;2023-01-01T13:35:36;12.40;99.90
59146;DHT22;44928;53.074;6.646;2023-01-01T13:38:02;12.40;99.90
59146;DHT22;44928;53.074;6.646;2023-01-01T13:40:29;12.40;99.90
59146;DHT22;44928;53.074;6.646;2023-01-01T13:45:24;12.40;99.90
59146;DHT22;44928;53.074;6.646;2023-01-01T13:50:19;12.40;99.90
59146;DHT22;44928;53.074;6.646;2023-01-01T13:55:34;12.30;99.90
59146;DHT22;44928;53.074;6.646;2023-01-01T14:03:07;12.20;99.90
59146;DHT22;44928;53.074;6.646;2023-01-01T14:08:04;12.20;99.90
59146;DHT22;44928;53.074;6.646;2023-01-01T14:10:36;12.20;99.90
59146;DHT22;44928;53.074;6.646;2023-01-01T14:18:00;12.20;99.90
59146;DHT22;44928;53.074;6.646;2023-01-01T14:20:36;12.10;99.90
59146;DHT22;44928;53.074;6.646;2023-01-01T14:23:05;12.10;99.90
59146;DHT22;44928;53.074;6.646;2023-01-01T14:25:33;12.10;99.90
59146;DHT22;44928;53.074;6.646;2023-01-01T14:27:59;12.00;99.90
59146;DHT22;44928;53.074;6.646;2023-01-01T14:30:24;12.10;99.90
59146;DHT22;44928;53.074;6.646;2023-01-01T14:32:57;12.00;99.90
59146;DHT22;44928;53.074;6.646;2023-01-01T14:35:23;12.00;99.90
59146;DHT22;44928;53.074;6.646;2023-01-01T14:37:49;12.00;99.90
59146;DHT22;44928;53.074;6.646;2023-01-01T14:40:16;11.90;99.90
59146;DHT22;44928;53.074;6.646;2023-01-01T14:42:42;11.90;99.90
59146;DHT22;44928;53.074;6.646;2023-01-01T14:45:13;11.90;99.90
59146;DHT22;44928;53.074;6.646;2023-01-01T14:47:39;11.90;99.90
59146;DHT22;44928;53.074;6.646;2023-01-01T14:50:10;11.80;99.90
59146;DHT22;44928;53.074;6.646;2023-01-01T14:52:37;11.80;99.90
59146;DHT22;44928;53.074;6.646;2023-01-01T14:55:03;11.80;99.90
59146;DHT22;44928;53.074;6.646;2023-01-01T14:57:31;11.80;99.90
59146;DHT22;44928;53.074;6.646;2023-01-01T14:59:57;11.80;99.90
59146;DHT22;44928;53.074;6.646;2023-01-01T15:02:23;11.80;99.90
59146;DHT22;44928;53.074;6.646;2023-01-01T15:04:49;11.70;99.90
59146;DHT22;44928;53.074;6.646;2023-01-01T15:07:19;11.70;99.90
59146;DHT22;44928;53.074;6.646;2023-01-01T15:09:45;11.70;99.90
59146;DHT22;44928;53.074;6.646;2023-01-01T15:12:11;11.60;99.90
59146;DHT22;44928;53.074;6.646;2023-01-01T15:14:39;11.60;99.90
59146;DHT22;44928;53.074;6.646;2023-01-01T15:17:16;11.60;99.90
59146;DHT22;44928;53.074;6.646;2023-01-01T15:19:43;11.60;99.90
59146;DHT22;44928;53.074;6.646;2023-01-01T15:22:10;11.60;99.90
59146;DHT22;44928;53.074;6.646;2023-01-01T15:24:37;11.50;99.90
59146;DHT22;44928;53.074;6.646;2023-01-01T15:27:03;11.50;99.90
59146;DHT22;44928;53.074;6.646;2023-01-01T15:29:32;11.50;99.90
59146;DHT22;44928;53.074;6.646;2023-01-01T15:32:02;11.50;99.90
59146;DHT22;44928;53.074;6.646;2023-01-01T15:34:29;11.50;99.90
59146;DHT22;44928;53.074;6.646;2023-01-01T15:36:56;11.50;99.90
59146;DHT22;44928;53.074;6.646;2023-01-01T15:39:29;11.50;99.90
59146;DHT22;44928;53.074;6.646;2023-01-01T15:41:55;11.40;99.90
59146;DHT22;44928;53.074;6.646;2023-01-01T15:44:25;11.40;99.90
59146;DHT22;44928;53.074;6.646;2023-01-01T15:46:51;11.40;99.90
59146;DHT22;44928;53.074;6.646;2023-01-01T15:49:21;11.40;99.90
59146;DHT22;44928;53.074;6.646;2023-01-01T15:51:47;11.30;99.90
59146;DHT22;44928;53.074;6.646;2023-01-01T15:54:14;11.30;99.90
59146;DHT22;44928;53.074;6.646;2023-01-01T15:56:41;11.30;99.90
59146;DHT22;44928;53.074;6.646;2023-01-01T15:59:21;11.20;99.90
59146;DHT22;44928;53.074;6.646;2023-01-01T16:01:48;11.20;99.90
59146;DHT22;44928;53.074;6.646;2023-01-01T16:04:20;11.20;99.90
59146;DHT22;44928;53.074;6.646;2023-01-01T16:06:48;11.20;99.90
59146;DHT22;44928;53.074;6.646;2023-01-01T16:09:15;11.20;99.90
59146;DHT22;44928;53.074;6.646;2023-01-01T16:11:41;11.10;99.90
59146;DHT22;44928;53.074;6.646;2023-01-01T16:14:07;11.10;99.90
59146;DHT22;44928;53.074;6.646;2023-01-01T16:16:33;11.10;99.90
59146;DHT22;44928;53.074;6.646;2023-01-01T16:18:59;11.10;99.90
59146;DHT22;44928;53.074;6.646;2023-01-01T16:21:28;11.10;99.90
59146;DHT22;44928;53.074;6.646;2023-01-01T16:23:54;11.10;99.90
59146;DHT22;44928;53.074;6.646;2023-01-01T16:26:20;11.10;99.90
59146;DHT22;44928;53.074;6.646;2023-01-01T16:28:46;11.00;99.90
59146;DHT22;44928;53.074;6.646;2023-01-01T16:31:16;11.00;99.90
59146;DHT22;44928;53.074;6.646;2023-01-01T16:33:43;11.00;99.90
59146;DHT22;44928;53.074;6.646;2023-01-01T16:36:10;11.00;99.90
59146;DHT22;44928;53.074;6.646;2023-01-01T16:38:35;11.00;99.90
59146;DHT22;44928;53.074;6.646;2023-01-01T16:41:01;11.00;99.90
59146;DHT22;44928;53.074;6.646;2023-01-01T16:43:27;11.00;99.90
59146;DHT22;44928;53.074;6.646;2023-01-01T16:45:52;11.00;99.90
59146;DHT22;44928;53.074;6.646;2023-01-01T16:48:18;11.00;99.90
59146;DHT22;44928;53.074;6.646;2023-01-01T16:50:44;10.90;99.90
59146;DHT22;44928;53.074;6.646;2023-01-01T16:53:09;10.90;99.90
59146;DHT22;44928;53.074;6.646;2023-01-01T16:55:35;10.90;99.90
59146;DHT22;44928;53.074;6.646;2023-01-01T16:58:00;10.90;99.90
59146;DHT22;44928;53.074;6.646;2023-01-01T17:00:26;10.90;99.90
59146;DHT22;44928;53.074;6.646;2023-01-01T17:02:52;10.90;99.90
59146;DHT22;44928;53.074;6.646;2023-01-01T17:05:17;10.90;99.90
59146;DHT22;44928;53.074;6.646;2023-01-01T17:07:43;10.90;99.90
59146;DHT22;44928;53.074;6.646;2023-01-01T17:10:09;10.90;99.90
59146;DHT22;44928;53.074;6.646;2023-01-01T17:12:34;10.90;99.90
59146;DHT22;44928;53.074;6.646;2023-01-01T17:15:00;10.90;99.90
59146;DHT22;44928;53.074;6.646;2023-01-01T17:17:26;10.90;99.90
59146;DHT22;44928;53.074;6.646;2023-01-01T17:19:51;10.90;99.90
59146;DHT22;44928;53.074;6.646;2023-01-01T17:22:17;10.90;99.90